Terminal Aerodrome Forecast
Issued by NWS

Home | Current Version | Previous Version | Text Only | Print | Product List | Glossary On
Versions: 1 2 3 4 5 6 7 8 9 10 11 12 13 14 15 16
713
FTUS42 KGSP 252145 AAA
TAFGMU
TAF AMD
KGMU 252145Z 2522/2618 22009KT P6SM VCTS BKN060CB
      TEMPO 2522/2523 -SHRA OVC050
     FM252300 23005KT P6SM SCT060=

USA.gov is the U.S. government's official web portal to all federal, state and local government web resources and services.